createdAt,value
2018-09-26T03:14:04.837Z,85.25
2018-09-26T03:15:04.837Z,85.25
2018-09-26T03:16:04.795Z,85.30
2018-09-26T03:17:04.799Z,85.25
2018-09-26T03:18:04.762Z,84.91
2018-09-26T03:19:04.755Z,85.25
2018-09-26T03:20:04.746Z,85.53
2018-09-26T03:21:04.736Z,85.63
2018-09-26T03:22:04.726Z,85.35
2018-09-26T03:23:04.733Z,85.53
2018-09-26T03:24:04.718Z,85.35
2018-09-26T03:25:04.700Z,85.35
2018-09-26T03:26:04.694Z,85.25
2018-09-26T03:27:04.683Z,85.44
2018-09-26T03:28:04.665Z,85.25
2018-09-26T03:29:04.693Z,85.16
2018-09-26T03:30:04.684Z,85.53
2018-09-26T03:31:04.640Z,85.25
2018-09-26T03:32:04.642Z,85.16
2018-09-26T03:33:04.625Z,85.25
2018-09-26T03:34:04.628Z,85.06
2018-09-26T03:35:04.634Z,85.53
2018-09-26T03:36:04.635Z,85.44
2018-09-26T03:37:04.636Z,85.35
2018-09-26T03:38:04.590Z,85.25
2018-09-26T03:39:04.594Z,85.44
2018-09-26T03:40:04.574Z,85.53
2018-09-26T03:41:04.570Z,85.44
2018-09-26T03:42:04.572Z,85.53
2018-09-26T03:43:04.540Z,85.82
2018-09-26T03:44:04.543Z,85.91
2018-09-26T03:45:04.529Z,85.25
2018-09-26T03:46:04.532Z,85.25
2018-09-26T03:47:04.515Z,85.53
2018-09-26T03:48:04.540Z,85.63
2018-09-26T03:49:04.503Z,85.63
2018-09-26T03:50:04.505Z,85.63
2018-09-26T03:51:04.485Z,85.35
2018-09-26T03:52:04.474Z,85.25
2018-09-26T03:53:04.477Z,85.91
2018-09-26T03:54:04.460Z,85.25
2018-09-26T03:55:04.452Z,85.53
2018-09-26T03:56:04.448Z,85.63
2018-09-26T03:57:04.451Z,85.25
2018-09-26T03:58:04.425Z,86.20
2018-09-26T03:59:04.424Z,86.11
2018-09-26T04:00:04.433Z,85.53
2018-09-26T04:01:04.402Z,85.53
2018-09-26T04:02:04.414Z,85.82
2018-09-26T04:03:04.390Z,85.91
2018-09-26T04:04:04.388Z,86.11
2018-09-26T04:05:04.450Z,86.39
2018-09-26T04:06:04.365Z,86.68
2018-09-26T04:07:04.362Z,85.72
2018-09-26T04:08:04.361Z,85.63
2018-09-26T04:09:04.337Z,85.72
2018-09-26T04:10:04.333Z,86.01
2018-09-26T04:11:04.336Z,85.06
2018-09-26T04:12:04.325Z,84.59
2018-09-26T04:13:04.372Z,85.53
2018-09-26T04:14:04.306Z,84.87
2018-09-26T04:15:04.293Z,84.40
2018-09-26T04:16:04.284Z,84.11
2018-09-26T04:17:04.284Z,84.21
2018-09-26T04:18:04.290Z,84.30
2018-09-26T04:19:04.263Z,84.21
2018-09-26T04:20:04.249Z,84.21
2018-09-26T04:21:04.272Z,84.30
2018-09-26T04:22:04.239Z,83.59
2018-09-26T04:23:04.233Z,84.11
2018-09-26T04:24:04.249Z,83.73
2018-09-26T04:25:04.227Z,83.54
2018-09-26T04:26:04.259Z,82.82
2018-09-26T04:27:04.319Z,80.96
2018-09-26T04:28:04.187Z,81.02
2018-09-26T04:29:04.241Z,81.02
2018-09-26T04:30:04.227Z,81.40
2018-09-26T04:31:13.787Z,80.93
2018-09-26T04:33:08.848Z,81.21
2018-09-26T04:35:29.512Z,83.59
2018-09-26T04:37:42.859Z,83.92
2018-09-26T04:38:42.868Z,85.16
2018-09-26T04:39:51.435Z,85.16
2018-09-26T04:41:36.333Z,85.53
2018-09-26T04:42:44.797Z,86.20
2018-09-26T04:44:29.596Z,85.53
2018-09-26T04:45:29.522Z,85.72
2018-09-26T04:46:29.572Z,85.72
2018-09-26T04:47:29.782Z,86.11
2018-09-26T04:48:29.537Z,86.20
2018-09-26T04:49:29.475Z,86.87
2018-09-26T04:50:29.467Z,86.49
2018-09-26T04:51:29.464Z,86.20
2018-09-26T04:52:29.456Z,86.39
2018-09-26T04:53:29.463Z,86.30
2018-09-26T04:54:29.471Z,85.91
2018-09-26T04:55:29.435Z,85.72
2018-09-26T04:56:29.446Z,85.82
2018-09-26T04:57:29.438Z,85.53
2018-09-26T04:58:29.412Z,85.25
2018-09-26T04:59:29.405Z,83.30
2018-09-26T05:00:29.394Z,81.44
2018-09-26T05:01:29.409Z,81.40
2018-09-26T05:02:29.374Z,81.21
2018-09-26T05:03:29.392Z,81.21
2018-09-26T05:04:29.393Z,81.68
2018-09-26T05:05:29.352Z,82.64
2018-09-26T05:06:29.386Z,82.82
2018-09-26T05:07:29.388Z,82.82
2018-09-26T05:08:29.328Z,83.39
2018-09-26T05:09:29.418Z,84.21
2018-09-26T05:10:29.318Z,84.49
2018-09-26T05:11:29.361Z,83.78
2018-09-26T05:12:29.342Z,83.11
2018-09-26T05:13:29.296Z,82.35
2018-09-26T05:14:29.293Z,81.97
2018-09-26T05:15:29.297Z,83.01
2018-09-26T05:16:29.311Z,83.39
2018-09-26T05:17:29.282Z,83.39
2018-09-26T05:18:29.271Z,84.30
2018-09-26T05:19:29.249Z,84.59
2018-09-26T05:20:29.234Z,84.49
2018-09-26T05:21:29.250Z,85.44
2018-09-26T05:22:29.222Z,85.35
2018-09-26T05:23:29.216Z,85.25
2018-09-26T05:24:29.210Z,85.25
2018-09-26T05:25:29.245Z,85.25
2018-09-26T05:26:29.225Z,85.63
2018-09-26T05:27:29.184Z,85.63
2018-09-26T05:28:29.209Z,84.87
2018-09-26T05:29:29.173Z,84.68
2018-09-26T05:30:29.215Z,85.53
2018-09-26T05:31:37.862Z,85.44
2018-09-26T05:33:23.640Z,85.06
2018-09-26T05:34:23.570Z,85.25
2018-09-26T05:35:23.548Z,84.97
2018-09-26T05:36:23.595Z,85.44
2018-09-26T05:37:23.562Z,85.25
2018-09-26T05:39:44.575Z,85.53
2018-09-26T05:40:44.563Z,86.39
2018-09-26T05:41:44.604Z,86.30
2018-09-26T05:42:44.601Z,85.39
2018-09-26T05:43:44.534Z,84.30
2018-09-26T05:44:44.492Z,84.78
2018-09-26T05:45:44.518Z,84.11
2018-09-26T05:46:44.526Z,84.16
2018-09-26T05:47:44.477Z,84.30
2018-09-26T05:48:44.479Z,84.30
2018-09-26T05:49:44.461Z,84.49
2018-09-26T05:52:06.501Z,84.63
2018-09-26T05:53:06.469Z,83.87
2018-09-26T05:54:06.518Z,83.97
2018-09-26T05:55:06.459Z,83.92
2018-09-26T05:56:06.541Z,84.49
2018-09-26T05:57:06.455Z,84.68
2018-09-26T05:58:06.429Z,84.68
2018-09-26T05:59:06.421Z,84.97
2018-09-26T06:00:06.417Z,84.97
2018-09-26T06:01:06.429Z,84.68
2018-09-26T06:02:06.392Z,84.53
2018-09-26T06:03:06.412Z,84.21
2018-09-26T06:04:06.387Z,84.25
2018-09-26T06:05:06.373Z,84.06
2018-09-26T06:06:06.368Z,83.97
2018-09-26T06:07:06.372Z,84.25
2018-09-26T06:08:06.371Z,83.68
2018-09-26T06:09:06.372Z,82.73
2018-09-26T06:10:06.425Z,82.82
2018-09-26T06:11:06.351Z,82.07
2018-09-26T06:12:06.342Z,82.16
2018-09-26T06:13:06.370Z,81.87
2018-09-26T06:14:06.316Z,81.21
2018-09-26T06:15:06.350Z,81.49
2018-09-26T06:16:06.325Z,81.12
2018-09-26T06:17:06.330Z,81.40
2018-09-26T06:18:06.284Z,81.21
2018-09-26T06:19:06.350Z,80.74
2018-09-26T06:20:06.315Z,81.63
2018-09-26T06:21:06.261Z,80.77
2018-09-26T06:22:06.264Z,80.58
2018-09-26T06:23:06.281Z,80.64
2018-09-26T06:24:06.276Z,80.35
2018-09-26T06:25:06.274Z,79.73
2018-09-26T06:26:06.263Z,79.35
2018-09-26T06:27:06.216Z,79.35
2018-09-26T06:28:06.209Z,79.25
2018-09-26T06:29:06.223Z,78.97
2018-09-26T06:30:06.223Z,79.06
2018-09-26T06:31:06.234Z,79.06
2018-09-26T06:32:06.179Z,78.78
2018-09-26T06:33:15.605Z,79.54
2018-09-26T06:34:59.644Z,79.25
2018-09-26T06:35:59.589Z,78.69
2018-09-26T06:36:59.551Z,78.40
2018-09-26T06:37:59.558Z,77.64
2018-09-26T06:38:59.543Z,78.30
2018-09-26T06:39:59.528Z,78.59
2018-09-26T06:40:59.531Z,78.30
2018-09-26T06:41:59.523Z,78.21
2018-09-26T06:42:59.510Z,77.73
2018-09-26T06:43:59.532Z,78.11
2018-09-26T06:44:59.504Z,78.16
2018-09-26T06:45:59.494Z,78.16
2018-09-26T06:46:59.489Z,77.64
2018-09-26T06:47:59.493Z,77.73
2018-09-26T06:48:59.492Z,77.73
2018-09-26T06:49:59.488Z,77.49
2018-09-26T06:50:59.486Z,76.82
2018-09-26T06:51:59.464Z,77.68
2018-09-26T06:52:59.440Z,76.92
2018-09-26T06:53:59.470Z,76.92
2018-09-26T06:54:59.427Z,76.54
2018-09-26T06:55:59.432Z,76.82
2018-09-26T06:56:59.431Z,76.92
2018-09-26T06:57:59.407Z,77.39
2018-09-26T06:58:59.398Z,77.11
2018-09-26T06:59:59.403Z,76.82
2018-09-26T07:00:59.388Z,76.44
2018-09-26T07:01:59.381Z,76.73
2018-09-26T07:02:59.376Z,77.01
2018-09-26T07:03:59.392Z,77.11
2018-09-26T07:04:59.387Z,77.30
2018-09-26T07:05:59.355Z,76.92
2018-09-26T07:06:59.404Z,77.20
2018-09-26T07:07:59.346Z,77.49
2018-09-26T07:08:59.408Z,77.30
2018-09-26T07:10:08.010Z,76.44
2018-09-26T07:11:52.768Z,76.92
2018-09-26T07:13:01.476Z,76.54
2018-09-26T07:14:46.153Z,76.54
2018-09-26T07:15:46.103Z,76.25
2018-09-26T07:18:07.173Z,76.20
2018-09-26T07:19:15.800Z,76.10
2018-09-26T07:21:00.579Z,74.87
2018-09-26T07:22:00.519Z,74.87
2018-09-26T07:23:00.523Z,74.58
2018-09-26T07:24:00.585Z,74.96
2018-09-26T07:25:00.500Z,74.67
2018-09-26T07:26:00.492Z,74.20
2018-09-26T07:27:00.482Z,74.10
2018-09-26T07:28:00.496Z,73.91
2018-09-26T07:29:00.618Z,73.66
2018-09-26T07:30:00.515Z,73.57
2018-09-26T07:31:00.492Z,73.47
2018-09-26T07:32:00.454Z,73.47
2018-09-26T07:33:00.440Z,73.19
2018-09-26T07:34:00.471Z,73.47
2018-09-26T07:35:00.469Z,73.28
2018-09-26T07:36:00.440Z,73.47
2018-09-26T07:37:00.437Z,72.81
2018-09-26T07:38:00.469Z,72.71
2018-09-26T07:39:00.442Z,73.38
2018-09-26T07:40:00.460Z,73.10
2018-09-26T07:41:00.446Z,73.47
2018-09-26T07:42:00.450Z,73.28
2018-09-26T07:43:00.390Z,73.28
2018-09-26T07:44:00.410Z,73.00
2018-09-26T07:45:00.418Z,73.10
2018-09-26T07:46:00.407Z,72.42
2018-09-26T07:47:00.423Z,71.76
2018-09-26T07:48:00.402Z,72.05
2018-09-26T07:49:00.409Z,71.28
2018-09-26T07:50:00.419Z,70.52
2018-09-26T07:51:00.420Z,71.00
2018-09-26T07:52:00.362Z,71.95
2018-09-26T07:53:00.402Z,72.05
2018-09-26T07:54:00.385Z,72.05
2018-09-26T07:55:00.367Z,71.57
2018-09-26T07:56:00.376Z,71.13
2018-09-26T07:57:00.358Z,71.28
2018-09-26T07:58:00.347Z,71.42
2018-09-26T07:59:00.347Z,71.22
2018-09-26T08:00:00.377Z,71.61
2018-09-26T08:01:00.311Z,70.75
2018-09-26T08:02:00.331Z,71.32
2018-09-26T08:03:00.312Z,70.27
2018-09-26T08:04:00.287Z,70.27
2018-09-26T08:05:00.292Z,70.27
2018-09-26T08:06:00.363Z,70.37
2018-09-26T08:07:00.270Z,71.13
2018-09-26T08:08:00.275Z,71.13
2018-09-26T08:09:00.273Z,70.94
2018-09-26T08:10:00.282Z,70.37
2018-09-26T08:11:00.289Z,69.79
2018-09-26T08:12:00.259Z,69.79
2018-09-26T08:13:00.286Z,69.42
2018-09-26T08:14:00.250Z,68.94
2018-09-26T08:15:00.253Z,69.42
2018-09-26T08:16:00.239Z,69.13
2018-09-26T08:17:00.244Z,69.32
2018-09-26T08:18:00.273Z,69.70
2018-09-26T08:19:00.205Z,70.47
2018-09-26T08:20:00.235Z,69.99
2018-09-26T08:21:00.211Z,69.42
2018-09-26T08:22:00.211Z,69.32
2018-09-26T08:24:22.371Z,69.32
2018-09-26T08:25:22.235Z,68.88
2018-09-26T08:26:30.849Z,68.88
2018-09-26T08:28:26.679Z,68.30
2018-09-26T08:29:16.648Z,68.12
2018-09-26T08:30:16.767Z,68.30
2018-09-26T08:32:37.664Z,68.40
2018-09-26T08:33:37.652Z,67.74
2018-09-26T08:34:37.614Z,67.55
2018-09-26T08:35:37.622Z,67.64
2018-09-26T08:36:37.612Z,67.16
2018-09-26T08:37:37.662Z,66.97
2018-09-26T08:38:37.623Z,67.07
2018-09-26T08:39:37.619Z,66.97
2018-09-26T08:40:37.590Z,66.78
2018-09-26T08:41:37.601Z,66.69
2018-09-26T08:42:37.567Z,66.31
2018-09-26T08:43:37.562Z,66.21
2018-09-26T08:44:37.579Z,66.31
2018-09-26T08:45:37.556Z,66.50
2018-09-26T08:46:37.575Z,66.11
2018-09-26T08:47:37.572Z,66.21
2018-09-26T08:48:37.592Z,65.73
2018-09-26T08:49:37.541Z,65.83
2018-09-26T08:50:37.585Z,66.02
2018-09-26T08:51:37.572Z,65.45
2018-09-26T08:52:37.600Z,65.73
2018-09-26T08:53:37.540Z,66.69
2018-09-26T08:54:37.557Z,67.07
2018-09-26T08:55:37.543Z,66.97
2018-09-26T08:56:37.518Z,66.69
2018-09-26T08:57:37.533Z,66.59
2018-09-26T08:58:37.540Z,66.72
2018-09-26T08:59:37.493Z,66.34
2018-09-26T09:00:37.529Z,66.05
2018-09-26T09:01:37.480Z,65.86
2018-09-26T09:02:37.472Z,66.05
2018-09-26T09:03:37.475Z,65.77
2018-09-26T09:04:37.478Z,66.15
2018-09-26T09:05:37.466Z,66.15
2018-09-26T09:06:37.490Z,65.86
2018-09-26T09:07:37.452Z,65.67
2018-09-26T09:08:37.455Z,65.86
2018-09-26T09:09:37.443Z,65.58
2018-09-26T09:10:37.450Z,64.72
2018-09-26T09:11:37.488Z,64.81
2018-09-26T09:12:37.437Z,63.96
2018-09-26T09:13:37.443Z,64.62
2018-09-26T09:14:37.552Z,64.43
2018-09-26T09:15:37.438Z,64.81
2018-09-26T09:16:37.450Z,64.81
2018-09-26T09:17:37.446Z,65.48
2018-09-26T09:18:37.415Z,65.77
2018-09-26T09:19:37.400Z,65.42
2018-09-26T09:20:37.428Z,64.28
2018-09-26T09:21:37.446Z,63.89
2018-09-26T09:22:37.403Z,63.96
2018-09-26T09:23:37.396Z,63.57
2018-09-26T09:24:37.389Z,63.76
2018-09-26T09:25:37.390Z,63.51
2018-09-26T09:26:37.379Z,63.23
2018-09-26T09:27:37.396Z,63.13
2018-09-26T09:28:37.362Z,62.56
2018-09-26T09:29:37.358Z,62.27
2018-09-26T09:30:37.372Z,62.18
2018-09-26T09:31:37.352Z,61.89
2018-09-26T09:32:37.354Z,61.54
2018-09-26T09:33:37.369Z,61.60
2018-09-26T09:34:37.349Z,62.37
2018-09-26T09:35:37.335Z,62.27
2018-09-26T09:36:37.393Z,63.42
2018-09-26T09:37:37.327Z,62.59
2018-09-26T09:38:37.335Z,61.63
2018-09-26T09:39:37.326Z,61.44
2018-09-26T09:40:37.344Z,61.54
2018-09-26T09:41:37.316Z,61.07
2018-09-26T09:42:37.322Z,60.58
2018-09-26T09:43:37.327Z,60.58
2018-09-26T09:44:37.346Z,60.65
2018-09-26T09:45:37.312Z,59.92
2018-09-26T09:46:44.970Z,59.53
2018-09-26T09:48:38.424Z,58.48
2018-09-26T09:50:51.814Z,59.44
2018-09-26T09:51:51.719Z,59.06
